Aeroporto :
LOGIN :

Iscrizione | Disclaimer

   EN    FR    IT 

 










Sommario :    VFR   VFR Marginale   IFR   IFR Intensivo   IFR Molto Intensivo
Visibilità : 
Base nubi : 
>= 8 km
>= 3000ft
5 / 8 km
1000 / 3000 ft
1500m / 5 km
500 / 1000 ft
800 / 1500m
200 / 500 ft
< 800m
< 200 ft
Simboli :   Temporali  Nebbia  Neve Forte  Precipitazioni Forti  Vento > 20 kt
SIGMETs :   Varie  Temporali  Ghiacco  Turbolenza  Onda orograficha  Ceneri Vulcaniche






- Altitudine del aeroporto : 333 ft


LIPL - Ghedi Brescia (Mil)

ULTIMO METAR :
  • 250155Z 07009KT 9999 FEW010 SCT050 18/14 Q1000 RMK BKN VIS MIN 9999 WIND THR31 06010KT WIND THR13 07008KT BLU

METARs OBSOLETI :
  • 250055Z 08009KT 9999 FEW050 SCT070 18/14 Q1001 RMK BKN VIS MIN 9999 WIND THR31 09008KT WIND THR13 08010KT BLU
  • 242355Z 09008KT 9999 SCT050 18/14 Q1003 RMK BKN SCT100 VIS MIN 9999 WIND THR31 08009KT WIND THR13 08009KT BLU

TAF TAF LIPL
Valido dal 25 a 00 ore il 25 a 09 ore UTC


242300Z 2500/2509 13010KT 8000 SCT040 BKN050
TEMPO 2500/2509 VRB15G25KT 3000 TSRA FEW020CB BKN030



MetMap, La meteo Aeronautica in un colpo d'occhio ! - Copyright ORBIFLY Dicembre 2007 - Disclaimer

ORBIFLY MET'MAP TEAM :

Programmazione e sviluppo : Alexandra Zaïnal
Concezione : Baudouin d'Aumeries
Aiuto per la programmazione : Marc-Olivier Méhu
Supporto tecnico e logistico : Manuel Goepfert
Aiuto per la traduzione : Arnaldo La Scala

Contatto : metmap@orbifly.com




FONTI E CREDITI :

   NOAA